sensor_id;sensor_type;location;lat;lon;timestamp;temperature;humidity
38582;DHT22;24349;53.720;10.014;2024-01-30T00:01:23;4.50;99.90
38582;DHT22;24349;53.720;10.014;2024-01-30T00:03:48;4.50;1.00
38582;DHT22;24349;53.720;10.014;2024-01-30T00:06:18;4.60;1.00
38582;DHT22;24349;53.720;10.014;2024-01-30T00:08:44;4.60;99.90
38582;DHT22;24349;53.720;10.014;2024-01-30T00:11:13;4.60;1.00
38582;DHT22;24349;53.720;10.014;2024-01-30T00:13:38;4.50;15.90
38582;DHT22;24349;53.720;10.014;2024-01-30T00:16:04;4.30;1.00
38582;DHT22;24349;53.720;10.014;2024-01-30T00:18:30;4.10;99.90
38582;DHT22;24349;53.720;10.014;2024-01-30T00:20:56;4.00;24.10
38582;DHT22;24349;53.720;10.014;2024-01-30T00:23:22;4.10;99.90
38582;DHT22;24349;53.720;10.014;2024-01-30T00:25:47;4.00;99.90
38582;DHT22;24349;53.720;10.014;2024-01-30T00:28:13;4.00;99.90
38582;DHT22;24349;53.720;10.014;2024-01-30T00:30:39;4.00;99.90
38582;DHT22;24349;53.720;10.014;2024-01-30T00:33:04;4.00;99.90
38582;DHT22;24349;53.720;10.014;2024-01-30T00:35:30;4.00;99.90
38582;DHT22;24349;53.720;10.014;2024-01-30T00:37:55;4.10;1.00
38582;DHT22;24349;53.720;10.014;2024-01-30T00:40:21;4.20;1.00
38582;DHT22;24349;53.720;10.014;2024-01-30T00:42:46;4.30;1.00
38582;DHT22;24349;53.720;10.014;2024-01-30T00:45:14;4.40;1.00
38582;DHT22;24349;53.720;10.014;2024-01-30T00:47:40;4.40;99.90
38582;DHT22;24349;53.720;10.014;2024-01-30T00:50:05;4.40;1.00
38582;DHT22;24349;53.720;10.014;2024-01-30T00:52:31;4.40;1.00
38582;DHT22;24349;53.720;10.014;2024-01-30T00:54:58;4.40;72.40
38582;DHT22;24349;53.720;10.014;2024-01-30T00:57:24;4.40;60.30
38582;DHT22;24349;53.720;10.014;2024-01-30T00:59:50;4.40;1.00
38582;DHT22;24349;53.720;10.014;2024-01-30T01:02:15;4.40;99.90
38582;DHT22;24349;53.720;10.014;2024-01-30T01:04:42;4.40;39.80
38582;DHT22;24349;53.720;10.014;2024-01-30T01:07:08;4.40;28.50
38582;DHT22;24349;53.720;10.014;2024-01-30T01:09:34;4.40;99.90
38582;DHT22;24349;53.720;10.014;2024-01-30T01:11:59;4.20;99.90
38582;DHT22;24349;53.720;10.014;2024-01-30T01:14:25;4.10;99.90
38582;DHT22;24349;53.720;10.014;2024-01-30T01:16:51;4.10;99.90
38582;DHT22;24349;53.720;10.014;2024-01-30T01:19:16;4.20;99.90
38582;DHT22;24349;53.720;10.014;2024-01-30T01:21:42;4.20;25.80
38582;DHT22;24349;53.720;10.014;2024-01-30T01:24:07;4.20;99.90
38582;DHT22;24349;53.720;10.014;2024-01-30T01:26:33;4.30;96.30
38582;DHT22;24349;53.720;10.014;2024-01-30T01:28:59;4.30;1.00
38582;DHT22;24349;53.720;10.014;2024-01-30T01:31:24;4.30;99.90
38582;DHT22;24349;53.720;10.014;2024-01-30T01:33:50;4.20;99.90
38582;DHT22;24349;53.720;10.014;2024-01-30T01:36:16;4.20;99.90
38582;DHT22;24349;53.720;10.014;2024-01-30T01:38:41;4.30;99.90
38582;DHT22;24349;53.720;10.014;2024-01-30T01:41:07;4.20;99.90
38582;DHT22;24349;53.720;10.014;2024-01-30T01:43:32;4.00;1.00
38582;DHT22;24349;53.720;10.014;2024-01-30T01:45:58;3.90;1.00
38582;DHT22;24349;53.720;10.014;2024-01-30T01:48:24;3.90;1.00
38582;DHT22;24349;53.720;10.014;2024-01-30T01:50:50;3.90;1.00
38582;DHT22;24349;53.720;10.014;2024-01-30T01:53:17;3.90;99.90
38582;DHT22;24349;53.720;10.014;2024-01-30T01:55:42;3.90;99.90
38582;DHT22;24349;53.720;10.014;2024-01-30T01:58:09;4.00;1.00
38582;DHT22;24349;53.720;10.014;2024-01-30T02:00:36;4.00;1.00
38582;DHT22;24349;53.720;10.014;2024-01-30T02:03:05;4.10;99.90
38582;DHT22;24349;53.720;10.014;2024-01-30T02:05:32;4.00;99.90
38582;DHT22;24349;53.720;10.014;2024-01-30T02:07:58;4.10;99.90
38582;DHT22;24349;53.720;10.014;2024-01-30T02:10:23;4.10;99.90
38582;DHT22;24349;53.720;10.014;2024-01-30T02:12:49;4.00;1.00
38582;DHT22;24349;53.720;10.014;2024-01-30T02:15:15;3.90;99.90
38582;DHT22;24349;53.720;10.014;2024-01-30T02:17:42;3.90;99.90
38582;DHT22;24349;53.720;10.014;2024-01-30T02:20:08;4.00;99.90
38582;DHT22;24349;53.720;10.014;2024-01-30T02:22:34;4.10;99.90
38582;DHT22;24349;53.720;10.014;2024-01-30T02:25:00;4.10;99.90
38582;DHT22;24349;53.720;10.014;2024-01-30T02:27:26;4.00;1.00
38582;DHT22;24349;53.720;10.014;2024-01-30T02:29:52;4.00;29.70
38582;DHT22;24349;53.720;10.014;2024-01-30T02:32:17;4.10;99.90
38582;DHT22;24349;53.720;10.014;2024-01-30T02:34:43;4.10;99.90
38582;DHT22;24349;53.720;10.014;2024-01-30T02:37:08;4.10;1.00
38582;DHT22;24349;53.720;10.014;2024-01-30T02:39:34;4.20;1.00
38582;DHT22;24349;53.720;10.014;2024-01-30T02:42:00;4.20;1.00
38582;DHT22;24349;53.720;10.014;2024-01-30T02:44:25;4.30;1.00
38582;DHT22;24349;53.720;10.014;2024-01-30T02:46:51;4.40;1.00
38582;DHT22;24349;53.720;10.014;2024-01-30T02:49:16;4.40;1.00
38582;DHT22;24349;53.720;10.014;2024-01-30T02:51:42;4.40;1.00
38582;DHT22;24349;53.720;10.014;2024-01-30T02:54:08;4.30;99.90
38582;DHT22;24349;53.720;10.014;2024-01-30T02:56:33;4.30;99.90
38582;DHT22;24349;53.720;10.014;2024-01-30T02:58:59;4.40;1.00
38582;DHT22;24349;53.720;10.014;2024-01-30T03:01:24;4.40;99.90
38582;DHT22;24349;53.720;10.014;2024-01-30T03:03:50;4.40;99.90
38582;DHT22;24349;53.720;10.014;2024-01-30T03:06:16;4.40;6.20
38582;DHT22;24349;53.720;10.014;2024-01-30T03:08:43;4.40;99.90
38582;DHT22;24349;53.720;10.014;2024-01-30T03:11:08;4.20;1.00
38582;DHT22;24349;53.720;10.014;2024-01-30T03:13:34;4.10;85.90
38582;DHT22;24349;53.720;10.014;2024-01-30T03:15:59;4.00;99.90
38582;DHT22;24349;53.720;10.014;2024-01-30T03:18:25;3.80;99.90
38582;DHT22;24349;53.720;10.014;2024-01-30T03:20:50;3.80;99.90
38582;DHT22;24349;53.720;10.014;2024-01-30T03:23:16;3.90;99.90
38582;DHT22;24349;53.720;10.014;2024-01-30T03:25:42;3.90;99.90
38582;DHT22;24349;53.720;10.014;2024-01-30T03:28:07;3.90;1.00
38582;DHT22;24349;53.720;10.014;2024-01-30T03:30:34;3.80;1.00
38582;DHT22;24349;53.720;10.014;2024-01-30T03:33:00;3.70;74.90
38582;DHT22;24349;53.720;10.014;2024-01-30T03:35:26;3.60;99.90
38582;DHT22;24349;53.720;10.014;2024-01-30T03:37:51;3.50;99.90
38582;DHT22;24349;53.720;10.014;2024-01-30T03:40:17;3.50;99.90
38582;DHT22;24349;53.720;10.014;2024-01-30T03:42:42;3.50;1.00
38582;DHT22;24349;53.720;10.014;2024-01-30T03:45:08;3.50;99.90
38582;DHT22;24349;53.720;10.014;2024-01-30T03:47:34;3.50;1.00
38582;DHT22;24349;53.720;10.014;2024-01-30T03:49:59;3.50;92.80
38582;DHT22;24349;53.720;10.014;2024-01-30T03:52:25;3.50;99.90
38582;DHT22;24349;53.720;10.014;2024-01-30T03:54:51;3.50;99.90
38582;DHT22;24349;53.720;10.014;2024-01-30T03:57:16;3.50;70.10
38582;DHT22;24349;53.720;10.014;2024-01-30T03:59:45;3.50;99.90
38582;DHT22;24349;53.720;10.014;2024-01-30T04:02:11;3.50;99.90
38582;DHT22;24349;53.720;10.014;2024-01-30T04:04:39;3.60;99.90
38582;DHT22;24349;53.720;10.014;2024-01-30T04:07:04;3.70;99.90
38582;DHT22;24349;53.720;10.014;2024-01-30T04:09:30;3.70;99.90
38582;DHT22;24349;53.720;10.014;2024-01-30T04:11:55;3.70;99.90
38582;DHT22;24349;53.720;10.014;2024-01-30T04:14:21;3.80;99.90
38582;DHT22;24349;53.720;10.014;2024-01-30T04:16:47;3.90;99.90
38582;DHT22;24349;53.720;10.014;2024-01-30T04:19:12;3.90;99.90
38582;DHT22;24349;53.720;10.014;2024-01-30T04:21:39;3.90;99.90
38582;DHT22;24349;53.720;10.014;2024-01-30T04:24:05;3.80;99.90
38582;DHT22;24349;53.720;10.014;2024-01-30T04:26:30;3.70;14.80
38582;DHT22;24349;53.720;10.014;2024-01-30T04:28:56;3.40;99.90
38582;DHT22;24349;53.720;10.014;2024-01-30T04:31:21;3.30;99.90
38582;DHT22;24349;53.720;10.014;2024-01-30T04:33:47;3.30;66.40
38582;DHT22;24349;53.720;10.014;2024-01-30T04:36:13;3.30;99.90
38582;DHT22;24349;53.720;10.014;2024-01-30T04:38:38;3.30;1.00
38582;DHT22;24349;53.720;10.014;2024-01-30T04:41:04;3.10;1.00
38582;DHT22;24349;53.720;10.014;2024-01-30T04:43:30;3.10;99.90
38582;DHT22;24349;53.720;10.014;2024-01-30T04:45:56;3.00;1.00
38582;DHT22;24349;53.720;10.014;2024-01-30T04:48:22;3.10;99.90
38582;DHT22;24349;53.720;10.014;2024-01-30T04:50:47;3.20;1.00
38582;DHT22;24349;53.720;10.014;2024-01-30T04:53:13;3.20;1.00
38582;DHT22;24349;53.720;10.014;2024-01-30T04:55:38;3.10;99.90
38582;DHT22;24349;53.720;10.014;2024-01-30T04:58:04;3.10;1.00
38582;DHT22;24349;53.720;10.014;2024-01-30T05:00:29;3.10;1.00
38582;DHT22;24349;53.720;10.014;2024-01-30T05:02:55;3.10;1.00
38582;DHT22;24349;53.720;10.014;2024-01-30T05:05:21;3.00;1.00
38582;DHT22;24349;53.720;10.014;2024-01-30T05:07:47;3.00;18.60
38582;DHT22;24349;53.720;10.014;2024-01-30T05:10:13;3.00;47.80
38582;DHT22;24349;53.720;10.014;2024-01-30T05:12:39;3.10;83.60
38582;DHT22;24349;53.720;10.014;2024-01-30T05:15:06;3.20;99.60
38582;DHT22;24349;53.720;10.014;2024-01-30T05:17:31;3.20;95.40
38582;DHT22;24349;53.720;10.014;2024-01-30T05:19:57;3.30;97.90
38582;DHT22;24349;53.720;10.014;2024-01-30T05:22:23;3.30;97.70
38582;DHT22;24349;53.720;10.014;2024-01-30T05:24:48;3.30;96.20
38582;DHT22;24349;53.720;10.014;2024-01-30T05:27:14;3.30;99.90
38582;DHT22;24349;53.720;10.014;2024-01-30T05:29:40;3.40;99.90
38582;DHT22;24349;53.720;10.014;2024-01-30T05:32:06;3.50;99.90
38582;DHT22;24349;53.720;10.014;2024-01-30T05:34:32;3.60;99.90
38582;DHT22;24349;53.720;10.014;2024-01-30T05:36:58;3.60;99.90
38582;DHT22;24349;53.720;10.014;2024-01-30T05:39:23;3.70;99.90
38582;DHT22;24349;53.720;10.014;2024-01-30T05:41:49;3.80;99.90
38582;DHT22;24349;53.720;10.014;2024-01-30T05:44:15;3.90;85.20
38582;DHT22;24349;53.720;10.014;2024-01-30T05:46:40;3.80;1.00
38582;DHT22;24349;53.720;10.014;2024-01-30T05:49:06;3.70;1.00
38582;DHT22;24349;53.720;10.014;2024-01-30T05:51:31;3.70;2.30
38582;DHT22;24349;53.720;10.014;2024-01-30T05:53:57;3.80;43.50
38582;DHT22;24349;53.720;10.014;2024-01-30T05:56:22;3.80;8.80
38582;DHT22;24349;53.720;10.014;2024-01-30T05:58:48;3.80;14.40
38582;DHT22;24349;53.720;10.014;2024-01-30T06:01:15;3.90;77.70
38582;DHT22;24349;53.720;10.014;2024-01-30T06:03:41;3.90;25.90
38582;DHT22;24349;53.720;10.014;2024-01-30T06:06:08;3.90;46.80
38582;DHT22;24349;53.720;10.014;2024-01-30T06:08:34;4.00;30.30
38582;DHT22;24349;53.720;10.014;2024-01-30T06:11:00;4.00;34.50
38582;DHT22;24349;53.720;10.014;2024-01-30T06:13:26;3.90;41.50
38582;DHT22;24349;53.720;10.014;2024-01-30T06:15:52;4.00;52.80
38582;DHT22;24349;53.720;10.014;2024-01-30T06:18:17;4.00;76.60
38582;DHT22;24349;53.720;10.014;2024-01-30T06:20:43;4.00;59.50
38582;DHT22;24349;53.720;10.014;2024-01-30T06:23:09;4.10;93.10
38582;DHT22;24349;53.720;10.014;2024-01-30T06:25:34;4.10;99.90
38582;DHT22;24349;53.720;10.014;2024-01-30T06:28:00;4.20;99.90
38582;DHT22;24349;53.720;10.014;2024-01-30T06:30:25;4.30;99.90
38582;DHT22;24349;53.720;10.014;2024-01-30T06:32:51;4.30;90.90
38582;DHT22;24349;53.720;10.014;2024-01-30T06:35:17;4.30;84.10
38582;DHT22;24349;53.720;10.014;2024-01-30T06:37:43;4.40;85.20
38582;DHT22;24349;53.720;10.014;2024-01-30T06:40:09;4.40;69.60
38582;DHT22;24349;53.720;10.014;2024-01-30T06:42:35;4.50;64.00
38582;DHT22;24349;53.720;10.014;2024-01-30T06:45:00;4.50;17.00
38582;DHT22;24349;53.720;10.014;2024-01-30T06:47:26;4.50;49.90
38582;DHT22;24349;53.720;10.014;2024-01-30T06:49:52;4.60;26.00
38582;DHT22;24349;53.720;10.014;2024-01-30T06:52:17;4.60;23.70
38582;DHT22;24349;53.720;10.014;2024-01-30T06:54:43;4.60;1.00
38582;DHT22;24349;53.720;10.014;2024-01-30T06:57:08;4.70;1.00
38582;DHT22;24349;53.720;10.014;2024-01-30T06:59:37;4.60;1.00
38582;DHT22;24349;53.720;10.014;2024-01-30T07:02:09;4.60;1.00
38582;DHT22;24349;53.720;10.014;2024-01-30T07:04:34;4.60;1.00
38582;DHT22;24349;53.720;10.014;2024-01-30T07:07:00;4.60;1.00
38582;DHT22;24349;53.720;10.014;2024-01-30T07:09:26;4.60;1.00
38582;DHT22;24349;53.720;10.014;2024-01-30T07:11:53;4.60;1.00
38582;DHT22;24349;53.720;10.014;2024-01-30T07:14:18;4.50;1.00
38582;DHT22;24349;53.720;10.014;2024-01-30T07:16:44;4.50;1.00
38582;DHT22;24349;53.720;10.014;2024-01-30T07:19:10;4.50;5.90
38582;DHT22;24349;53.720;10.014;2024-01-30T07:21:35;4.60;50.60
38582;DHT22;24349;53.720;10.014;2024-01-30T07:24:01;4.60;71.80
38582;DHT22;24349;53.720;10.014;2024-01-30T07:26:27;4.70;87.50
38582;DHT22;24349;53.720;10.014;2024-01-30T07:28:52;4.60;3.30
38582;DHT22;24349;53.720;10.014;2024-01-30T07:31:18;4.60;1.80
38582;DHT22;24349;53.720;10.014;2024-01-30T07:33:46;4.60;15.90
38582;DHT22;24349;53.720;10.014;2024-01-30T07:36:11;4.60;35.30
38582;DHT22;24349;53.720;10.014;2024-01-30T07:38:37;4.70;48.00
38582;DHT22;24349;53.720;10.014;2024-01-30T07:41:03;4.80;37.60
38582;DHT22;24349;53.720;10.014;2024-01-30T07:43:28;4.80;17.70
38582;DHT22;24349;53.720;10.014;2024-01-30T07:45:54;4.90;1.00
38582;DHT22;24349;53.720;10.014;2024-01-30T07:48:19;4.80;1.00
38582;DHT22;24349;53.720;10.014;2024-01-30T07:50:45;4.80;1.00
38582;DHT22;24349;53.720;10.014;2024-01-30T07:53:11;4.70;1.00
38582;DHT22;24349;53.720;10.014;2024-01-30T07:55:36;4.80;1.00
38582;DHT22;24349;53.720;10.014;2024-01-30T07:58:02;4.80;1.00
38582;DHT22;24349;53.720;10.014;2024-01-30T08:00:29;4.90;1.00
38582;DHT22;24349;53.720;10.014;2024-01-30T08:02:55;4.90;1.00
38582;DHT22;24349;53.720;10.014;2024-01-30T08:05:21;4.90;1.00
38582;DHT22;24349;53.720;10.014;2024-01-30T08:07:50;5.00;1.00
38582;DHT22;24349;53.720;10.014;2024-01-30T08:10:16;5.00;1.00
38582;DHT22;24349;53.720;10.014;2024-01-30T08:12:44;5.10;1.00
38582;DHT22;24349;53.720;10.014;2024-01-30T08:15:10;5.10;1.40
38582;DHT22;24349;53.720;10.014;2024-01-30T08:17:37;5.20;1.00
38582;DHT22;24349;53.720;10.014;2024-01-30T08:20:03;5.30;10.20
38582;DHT22;24349;53.720;10.014;2024-01-30T08:22:30;5.40;1.00
38582;DHT22;24349;53.720;10.014;2024-01-30T08:24:56;5.50;1.00
38582;DHT22;24349;53.720;10.014;2024-01-30T08:27:21;5.50;1.00
38582;DHT22;24349;53.720;10.014;2024-01-30T08:29:47;5.50;1.00
38582;DHT22;24349;53.720;10.014;2024-01-30T08:32:12;5.60;99.90
38582;DHT22;24349;53.720;10.014;2024-01-30T08:34:38;5.70;99.90
38582;DHT22;24349;53.720;10.014;2024-01-30T08:37:04;5.80;99.90
38582;DHT22;24349;53.720;10.014;2024-01-30T08:39:29;5.90;99.90
38582;DHT22;24349;53.720;10.014;2024-01-30T08:41:56;6.00;99.90
38582;DHT22;24349;53.720;10.014;2024-01-30T08:44:21;6.10;1.00
38582;DHT22;24349;53.720;10.014;2024-01-30T08:46:47;6.30;99.90
38582;DHT22;24349;53.720;10.014;2024-01-30T08:49:13;6.40;99.90
38582;DHT22;24349;53.720;10.014;2024-01-30T08:51:39;6.50;50.40
38582;DHT22;24349;53.720;10.014;2024-01-30T08:54:05;6.50;99.90
38582;DHT22;24349;53.720;10.014;2024-01-30T08:56:30;6.60;1.00
38582;DHT22;24349;53.720;10.014;2024-01-30T08:58:56;6.60;99.90
38582;DHT22;24349;53.720;10.014;2024-01-30T09:01:22;6.50;1.00
38582;DHT22;24349;53.720;10.014;2024-01-30T09:03:47;6.60;1.00
38582;DHT22;24349;53.720;10.014;2024-01-30T09:06:13;6.60;99.90
38582;DHT22;24349;53.720;10.014;2024-01-30T09:08:38;6.70;99.90
38582;DHT22;24349;53.720;10.014;2024-01-30T09:11:13;6.90;99.90
38582;DHT22;24349;53.720;10.014;2024-01-30T09:13:39;7.10;1.70
38582;DHT22;24349;53.720;10.014;2024-01-30T09:16:05;7.20;99.90
38582;DHT22;24349;53.720;10.014;2024-01-30T09:18:31;7.00;99.90
38582;DHT22;24349;53.720;10.014;2024-01-30T09:20:56;7.10;99.60
38582;DHT22;24349;53.720;10.014;2024-01-30T09:23:22;7.10;1.00
38582;DHT22;24349;53.720;10.014;2024-01-30T09:25:48;7.20;1.00
38582;DHT22;24349;53.720;10.014;2024-01-30T09:28:14;7.30;1.00
38582;DHT22;24349;53.720;10.014;2024-01-30T09:30:39;7.30;99.90
38582;DHT22;24349;53.720;10.014;2024-01-30T09:33:06;7.30;99.90
38582;DHT22;24349;53.720;10.014;2024-01-30T09:35:31;7.30;99.90
38582;DHT22;24349;53.720;10.014;2024-01-30T09:37:57;7.40;99.90
38582;DHT22;24349;53.720;10.014;2024-01-30T09:40:24;7.60;1.00
38582;DHT22;24349;53.720;10.014;2024-01-30T09:42:53;7.70;26.40
38582;DHT22;24349;53.720;10.014;2024-01-30T09:45:19;7.80;99.90
38582;DHT22;24349;53.720;10.014;2024-01-30T09:47:46;8.00;1.00
38582;DHT22;24349;53.720;10.014;2024-01-30T09:50:15;8.00;99.90
38582;DHT22;24349;53.720;10.014;2024-01-30T09:52:41;8.10;94.10
38582;DHT22;24349;53.720;10.014;2024-01-30T09:55:09;8.20;99.90
38582;DHT22;24349;53.720;10.014;2024-01-30T09:57:35;8.30;99.90
38582;DHT22;24349;53.720;10.014;2024-01-30T10:00:02;8.30;1.00
38582;DHT22;24349;53.720;10.014;2024-01-30T10:02:31;8.40;1.00
38582;DHT22;24349;53.720;10.014;2024-01-30T10:04:57;8.40;99.90
38582;DHT22;24349;53.720;10.014;2024-01-30T10:07:22;8.50;1.00
38582;DHT22;24349;53.720;10.014;2024-01-30T10:09:48;8.70;99.90
38582;DHT22;24349;53.720;10.014;2024-01-30T10:12:15;8.60;99.90
38582;DHT22;24349;53.720;10.014;2024-01-30T10:14:42;8.70;99.90
38582;DHT22;24349;53.720;10.014;2024-01-30T10:17:08;8.60;99.90
38582;DHT22;24349;53.720;10.014;2024-01-30T10:19:35;8.70;99.90
38582;DHT22;24349;53.720;10.014;2024-01-30T10:22:01;8.80;99.90
38582;DHT22;24349;53.720;10.014;2024-01-30T10:24:26;8.70;99.90
38582;DHT22;24349;53.720;10.014;2024-01-30T10:26:53;8.80;99.90
38582;DHT22;24349;53.720;10.014;2024-01-30T10:29:19;8.80;86.20
38582;DHT22;24349;53.720;10.014;2024-01-30T10:31:45;8.80;99.90
38582;DHT22;24349;53.720;10.014;2024-01-30T10:34:10;9.10;99.90
38582;DHT22;24349;53.720;10.014;2024-01-30T10:36:40;9.20;26.30
38582;DHT22;24349;53.720;10.014;2024-01-30T10:39:08;9.10;1.00
38582;DHT22;24349;53.720;10.014;2024-01-30T10:41:43;9.10;1.00
38582;DHT22;24349;53.720;10.014;2024-01-30T10:44:10;9.20;6.20
38582;DHT22;24349;53.720;10.014;2024-01-30T10:46:38;9.30;1.00
38582;DHT22;24349;53.720;10.014;2024-01-30T10:49:04;9.40;1.00
38582;DHT22;24349;53.720;10.014;2024-01-30T10:51:31;9.60;1.00
38582;DHT22;24349;53.720;10.014;2024-01-30T10:53:57;9.40;1.00
38582;DHT22;24349;53.720;10.014;2024-01-30T10:56:23;9.40;1.00
38582;DHT22;24349;53.720;10.014;2024-01-30T10:58:50;9.50;1.00
38582;DHT22;24349;53.720;10.014;2024-01-30T11:01:19;9.60;1.00
38582;DHT22;24349;53.720;10.014;2024-01-30T11:03:52;9.70;1.00
38582;DHT22;24349;53.720;10.014;2024-01-30T11:06:18;9.70;99.90
38582;DHT22;24349;53.720;10.014;2024-01-30T11:09:00;9.80;99.90
38582;DHT22;24349;53.720;10.014;2024-01-30T11:11:27;9.90;1.00
38582;DHT22;24349;53.720;10.014;2024-01-30T11:13:53;9.80;1.00
38582;DHT22;24349;53.720;10.014;2024-01-30T11:16:20;9.50;99.90
38582;DHT22;24349;53.720;10.014;2024-01-30T11:18:50;9.60;1.00
38582;DHT22;24349;53.720;10.014;2024-01-30T11:21:19;9.60;1.00
38582;DHT22;24349;53.720;10.014;2024-01-30T11:23:44;9.80;13.50
38582;DHT22;24349;53.720;10.014;2024-01-30T11:26:10;9.60;1.00
38582;DHT22;24349;53.720;10.014;2024-01-30T11:28:37;9.60;1.00
38582;DHT22;24349;53.720;10.014;2024-01-30T11:31:07;9.70;1.00
38582;DHT22;24349;53.720;10.014;2024-01-30T11:33:33;9.70;1.00
38582;DHT22;24349;53.720;10.014;2024-01-30T11:36:00;9.50;1.00
38582;DHT22;24349;53.720;10.014;2024-01-30T11:38:27;9.50;1.00
38582;DHT22;24349;53.720;10.014;2024-01-30T11:40:54;9.50;45.20
38582;DHT22;24349;53.720;10.014;2024-01-30T11:43:21;9.50;53.40
38582;DHT22;24349;53.720;10.014;2024-01-30T11:45:47;9.40;62.70
38582;DHT22;24349;53.720;10.014;2024-01-30T11:48:12;9.40;30.40
38582;DHT22;24349;53.720;10.014;2024-01-30T11:50:39;9.30;91.80
38582;DHT22;24349;53.720;10.014;2024-01-30T11:53:06;9.30;99.90
38582;DHT22;24349;53.720;10.014;2024-01-30T11:55:32;9.30;99.90
38582;DHT22;24349;53.720;10.014;2024-01-30T11:57:58;9.30;98.50
38582;DHT22;24349;53.720;10.014;2024-01-30T12:00:25;9.40;99.90
38582;DHT22;24349;53.720;10.014;2024-01-30T12:02:55;9.50;99.90
38582;DHT22;24349;53.720;10.014;2024-01-30T12:05:24;9.40;99.90
38582;DHT22;24349;53.720;10.014;2024-01-30T12:07:50;9.50;99.90
38582;DHT22;24349;53.720;10.014;2024-01-30T12:10:16;9.50;99.90
38582;DHT22;24349;53.720;10.014;2024-01-30T12:12:47;9.40;99.90
38582;DHT22;24349;53.720;10.014;2024-01-30T12:15:14;9.40;99.90
38582;DHT22;24349;53.720;10.014;2024-01-30T12:17:40;9.40;99.90
38582;DHT22;24349;53.720;10.014;2024-01-30T12:20:14;9.30;99.90
38582;DHT22;24349;53.720;10.014;2024-01-30T12:22:41;9.40;99.90
38582;DHT22;24349;53.720;10.014;2024-01-30T12:27:34;9.40;99.90
38582;DHT22;24349;53.720;10.014;2024-01-30T12:30:00;9.40;99.90
38582;DHT22;24349;53.720;10.014;2024-01-30T12:32:25;9.40;99.90
38582;DHT22;24349;53.720;10.014;2024-01-30T12:34:55;9.40;99.90
38582;DHT22;24349;53.720;10.014;2024-01-30T12:37:22;9.40;99.90
38582;DHT22;24349;53.720;10.014;2024-01-30T12:39:51;9.40;99.90
38582;DHT22;24349;53.720;10.014;2024-01-30T12:42:18;9.50;99.90
38582;DHT22;24349;53.720;10.014;2024-01-30T12:44:44;9.50;99.90
38582;DHT22;24349;53.720;10.014;2024-01-30T12:47:09;9.60;1.00
38582;DHT22;24349;53.720;10.014;2024-01-30T12:49:35;9.60;1.00
38582;DHT22;24349;53.720;10.014;2024-01-30T12:52:01;9.70;1.00
38582;DHT22;24349;53.720;10.014;2024-01-30T12:54:27;9.60;1.00
38582;DHT22;24349;53.720;10.014;2024-01-30T12:56:52;9.70;1.00
38582;DHT22;24349;53.720;10.014;2024-01-30T12:59:18;9.70;1.00
38582;DHT22;24349;53.720;10.014;2024-01-30T13:01:44;9.70;1.00
38582;DHT22;24349;53.720;10.014;2024-01-30T13:04:09;9.70;1.00
38582;DHT22;24349;53.720;10.014;2024-01-30T13:06:35;9.70;1.00
38582;DHT22;24349;53.720;10.014;2024-01-30T13:09:01;9.80;1.00
38582;DHT22;24349;53.720;10.014;2024-01-30T13:11:26;9.80;1.00
38582;DHT22;24349;53.720;10.014;2024-01-30T13:13:52;9.70;1.00
38582;DHT22;24349;53.720;10.014;2024-01-30T13:16:17;9.80;1.00
38582;DHT22;24349;53.720;10.014;2024-01-30T13:18:44;9.70;31.60
38582;DHT22;24349;53.720;10.014;2024-01-30T13:21:10;9.70;69.80
38582;DHT22;24349;53.720;10.014;2024-01-30T13:23:38;9.70;46.70
38582;DHT22;24349;53.720;10.014;2024-01-30T13:26:04;9.80;58.60
38582;DHT22;24349;53.720;10.014;2024-01-30T13:28:29;9.80;84.90
38582;DHT22;24349;53.720;10.014;2024-01-30T13:30:55;9.80;99.90
38582;DHT22;24349;53.720;10.014;2024-01-30T13:33:21;9.80;97.10
38582;DHT22;24349;53.720;10.014;2024-01-30T13:35:46;9.80;87.80
38582;DHT22;24349;53.720;10.014;2024-01-30T13:38:12;9.80;99.90
38582;DHT22;24349;53.720;10.014;2024-01-30T13:40:39;9.80;99.90
38582;DHT22;24349;53.720;10.014;2024-01-30T13:43:04;9.80;99.90
38582;DHT22;24349;53.720;10.014;2024-01-30T13:45:30;9.80;99.90
38582;DHT22;24349;53.720;10.014;2024-01-30T13:47:55;9.80;99.90
38582;DHT22;24349;53.720;10.014;2024-01-30T13:50:21;9.70;1.00
38582;DHT22;24349;53.720;10.014;2024-01-30T13:52:46;9.70;1.00
38582;DHT22;24349;53.720;10.014;2024-01-30T13:55:12;9.70;1.00
38582;DHT22;24349;53.720;10.014;2024-01-30T13:57:38;9.60;99.90
38582;DHT22;24349;53.720;10.014;2024-01-30T14:00:05;9.70;92.00
38582;DHT22;24349;53.720;10.014;2024-01-30T14:02:34;9.90;99.90
38582;DHT22;24349;53.720;10.014;2024-01-30T14:04:59;10.00;99.90
38582;DHT22;24349;53.720;10.014;2024-01-30T14:07:25;9.90;1.00
38582;DHT22;24349;53.720;10.014;2024-01-30T14:09:51;9.90;1.00
38582;DHT22;24349;53.720;10.014;2024-01-30T14:12:16;10.00;1.00
38582;DHT22;24349;53.720;10.014;2024-01-30T14:14:42;9.90;1.00
38582;DHT22;24349;53.720;10.014;2024-01-30T14:17:08;10.00;97.90
38582;DHT22;24349;53.720;10.014;2024-01-30T14:19:34;9.90;99.90
38582;DHT22;24349;53.720;10.014;2024-01-30T14:22:00;9.90;99.90
38582;DHT22;24349;53.720;10.014;2024-01-30T14:24:26;9.90;99.90
38582;DHT22;24349;53.720;10.014;2024-01-30T14:26:52;9.90;99.70
38582;DHT22;24349;53.720;10.014;2024-01-30T14:29:18;10.00;99.90
38582;DHT22;24349;53.720;10.014;2024-01-30T14:31:43;10.00;90.40
38582;DHT22;24349;53.720;10.014;2024-01-30T14:34:09;10.00;99.90
38582;DHT22;24349;53.720;10.014;2024-01-30T14:36:36;10.20;99.90
38582;DHT22;24349;53.720;10.014;2024-01-30T14:39:02;10.00;29.20
38582;DHT22;24349;53.720;10.014;2024-01-30T14:41:29;10.00;87.40
38582;DHT22;24349;53.720;10.014;2024-01-30T14:43:54;10.00;99.90
38582;DHT22;24349;53.720;10.014;2024-01-30T14:46:21;10.10;99.90
38582;DHT22;24349;53.720;10.014;2024-01-30T14:48:47;10.10;99.90
38582;DHT22;24349;53.720;10.014;2024-01-30T14:51:12;10.00;99.90
38582;DHT22;24349;53.720;10.014;2024-01-30T14:53:39;10.00;1.00
38582;DHT22;24349;53.720;10.014;2024-01-30T14:56:05;10.00;1.00
38582;DHT22;24349;53.720;10.014;2024-01-30T14:58:31;9.90;1.00
38582;DHT22;24349;53.720;10.014;2024-01-30T15:00:57;9.90;99.90
38582;DHT22;24349;53.720;10.014;2024-01-30T15:05:58;9.90;99.90
38582;DHT22;24349;53.720;10.014;2024-01-30T15:08:23;10.00;99.90
38582;DHT22;24349;53.720;10.014;2024-01-30T15:10:49;10.00;99.90
38582;DHT22;24349;53.720;10.014;2024-01-30T15:13:16;10.00;99.90
38582;DHT22;24349;53.720;10.014;2024-01-30T15:15:41;10.00;1.00
38582;DHT22;24349;53.720;10.014;2024-01-30T15:18:08;10.10;1.00
38582;DHT22;24349;53.720;10.014;2024-01-30T15:20:36;10.10;99.90
38582;DHT22;24349;53.720;10.014;2024-01-30T15:23:02;10.10;99.90
38582;DHT22;24349;53.720;10.014;2024-01-30T15:25:28;10.10;1.00
38582;DHT22;24349;53.720;10.014;2024-01-30T15:27:54;10.20;99.90
38582;DHT22;24349;53.720;10.014;2024-01-30T15:30:20;10.10;99.90
38582;DHT22;24349;53.720;10.014;2024-01-30T15:32:46;10.00;1.00